createdAt,value
2023-02-26T00:00:11.905Z,0.08
2023-02-26T00:01:09.821Z,0.08
2023-02-26T00:02:05.919Z,0.07
2023-02-26T00:03:04.285Z,0.03
2023-02-26T00:04:05.369Z,0.08
2023-02-26T00:05:04.223Z,0.16
2023-02-26T00:06:04.217Z,0.07
2023-02-26T00:07:04.212Z,0.15
2023-02-26T00:08:04.217Z,0.18
2023-02-26T00:09:04.204Z,0.15
2023-02-26T00:10:04.192Z,0.21
2023-02-26T00:11:04.185Z,0.19
2023-02-26T00:12:04.177Z,0.25
2023-02-26T00:13:04.168Z,0.32
2023-02-26T00:14:04.194Z,0.32
2023-02-26T00:15:04.158Z,0.29
2023-02-26T00:16:04.139Z,0.31
2023-02-26T00:17:04.203Z,0.34
2023-02-26T00:18:04.130Z,0.36
2023-02-26T00:19:04.117Z,0.37
2023-02-26T00:20:04.111Z,0.36
2023-02-26T00:21:04.100Z,0.34
2023-02-26T00:22:04.095Z,0.31
2023-02-26T00:23:04.102Z,0.32
2023-02-26T00:24:55.751Z,0.31
2023-02-26T00:25:55.736Z,0.31
2023-02-26T00:26:55.714Z,0.36
2023-02-26T00:27:55.708Z,0.31
2023-02-26T00:28:55.712Z,0.28
2023-02-26T00:29:55.712Z,0.37
2023-02-26T00:30:56.840Z,0.25
2023-02-26T00:31:56.933Z,0.28
2023-02-26T00:32:56.759Z,0.32
2023-02-26T00:33:56.773Z,0.31
2023-02-26T00:34:56.749Z,0.28
2023-02-26T00:35:56.752Z,0.31
2023-02-26T00:36:56.733Z,0.34
2023-02-26T00:37:56.719Z,0.36
2023-02-26T00:38:56.722Z,0.23
2023-02-26T00:39:56.743Z,0.26
2023-02-26T00:40:56.708Z,0.29
2023-02-26T00:41:56.708Z,0.16
2023-02-26T00:42:56.678Z,0.22
2023-02-26T00:43:56.690Z,0.26
2023-02-26T00:44:56.688Z,0.29
2023-02-26T00:45:56.668Z,0.18
2023-02-26T00:46:56.657Z,0.16
2023-02-26T00:47:56.635Z,0.12
2023-02-26T00:48:56.643Z,0.10
2023-02-26T00:49:57.465Z,0.08
2023-02-26T00:50:56.632Z,0.04
2023-02-26T00:51:56.602Z,0.01
2023-02-26T00:52:56.866Z,-0.07
2023-02-26T00:53:56.594Z,-0.10
2023-02-26T00:54:56.591Z,-0.14
2023-02-26T00:55:56.573Z,-0.18
2023-02-26T00:56:56.565Z,-0.23
2023-02-26T00:57:56.593Z,-0.15
2023-02-26T00:58:56.554Z,-0.18
2023-02-26T00:59:56.554Z,-0.14
2023-02-26T01:00:56.540Z,-0.26
2023-02-26T01:01:56.552Z,-0.10
2023-02-26T01:02:56.515Z,-0.18
2023-02-26T01:03:56.546Z,-0.18
2023-02-26T01:04:56.490Z,-0.14
2023-02-26T01:05:56.483Z,-0.20
2023-02-26T01:06:56.494Z,-0.20
2023-02-26T01:07:58.469Z,-0.25
2023-02-26T01:08:56.463Z,-0.31
2023-02-26T01:09:56.459Z,-0.25
2023-02-26T01:10:56.451Z,-0.34
2023-02-26T01:11:56.441Z,-0.34
2023-02-26T01:12:56.549Z,-0.41
2023-02-26T01:13:56.430Z,-0.26
2023-02-26T01:14:56.428Z,-0.38
2023-02-26T01:15:56.423Z,-0.26
2023-02-26T01:16:56.395Z,-0.32
2023-02-26T01:17:56.391Z,-0.32
2023-02-26T01:18:56.407Z,-0.34
2023-02-26T01:19:56.379Z,-0.34
2023-02-26T01:20:56.412Z,-0.39
2023-02-26T01:21:56.359Z,-0.38
2023-02-26T01:22:57.949Z,-0.38
2023-02-26T01:23:59.265Z,-0.56
2023-02-26T01:24:57.950Z,-0.53
2023-02-26T01:25:57.331Z,-0.54
2023-02-26T01:26:56.324Z,-0.53
2023-02-26T01:27:56.318Z,-0.54
2023-02-26T01:28:56.311Z,-0.59
2023-02-26T01:29:56.300Z,-0.54
2023-02-26T01:30:56.415Z,-0.56
2023-02-26T01:31:56.446Z,-0.57
2023-02-26T01:32:56.295Z,-0.62
2023-02-26T01:33:56.265Z,-0.67
2023-02-26T01:34:56.263Z,-0.64
2023-02-26T01:35:56.242Z,-0.59
2023-02-26T01:36:56.234Z,-0.67
2023-02-26T01:37:56.244Z,-0.70
2023-02-26T01:38:58.011Z,-0.67
2023-02-26T01:39:56.220Z,-0.64
2023-02-26T01:40:56.209Z,-0.68
2023-02-26T01:41:56.218Z,-0.71
2023-02-26T01:42:56.205Z,-0.74
2023-02-26T01:43:56.978Z,-0.70
2023-02-26T01:44:56.178Z,-0.70
2023-02-26T01:45:56.169Z,-0.67
2023-02-26T01:46:56.215Z,-0.74
2023-02-26T01:47:56.155Z,-0.71
2023-02-26T01:48:56.188Z,-0.75
2023-02-26T01:49:56.186Z,-0.80
2023-02-26T01:50:56.978Z,-0.71
2023-02-26T01:51:56.138Z,-0.78
2023-02-26T01:52:56.140Z,-0.74
2023-02-26T01:53:56.129Z,-0.78
2023-02-26T01:54:56.107Z,-0.80
2023-02-26T01:55:56.102Z,-0.85
2023-02-26T01:56:56.088Z,-0.93
2023-02-26T01:58:43.473Z,-0.85
2023-02-26T01:59:43.472Z,-0.90
2023-02-26T02:00:43.475Z,-0.93
2023-02-26T02:01:44.567Z,-0.96
2023-02-26T02:02:44.659Z,-0.94
2023-02-26T02:03:44.584Z,-0.93
2023-02-26T02:04:44.527Z,-0.96
2023-02-26T02:05:44.518Z,-0.99
2023-02-26T02:06:44.528Z,-0.96
2023-02-26T02:07:44.503Z,-0.90
2023-02-26T02:08:44.496Z,-0.91
2023-02-26T02:09:44.491Z,-0.86
2023-02-26T02:10:44.475Z,-0.96
2023-02-26T02:11:44.473Z,-0.99
2023-02-26T02:12:44.463Z,-0.83
2023-02-26T02:13:44.460Z,-0.86
2023-02-26T02:14:44.451Z,-0.97
2023-02-26T02:15:44.452Z,-1.01
2023-02-26T02:16:44.559Z,-0.97
2023-02-26T02:17:44.446Z,-1.04
2023-02-26T02:18:44.411Z,-1.04
2023-02-26T02:19:44.404Z,-0.99
2023-02-26T02:20:44.394Z,-1.02
2023-02-26T02:21:45.354Z,-1.05
2023-02-26T02:22:44.381Z,-0.94
2023-02-26T02:23:44.920Z,-0.99
2023-02-26T02:24:44.365Z,-1.11
2023-02-26T02:25:44.356Z,-1.04
2023-02-26T02:26:44.364Z,-0.91
2023-02-26T02:27:44.340Z,-0.94
2023-02-26T02:28:44.342Z,-0.96
2023-02-26T02:29:44.331Z,-0.97
2023-02-26T02:30:44.316Z,-0.94
2023-02-26T02:31:44.509Z,-0.96
2023-02-26T02:32:44.370Z,-1.01
2023-02-26T02:33:44.293Z,-0.97
2023-02-26T02:34:44.296Z,-0.96
2023-02-26T02:35:44.281Z,-0.94
2023-02-26T02:36:44.287Z,-0.97
2023-02-26T02:37:44.271Z,-1.02
2023-02-26T02:38:44.259Z,-1.02
2023-02-26T02:39:44.254Z,-1.02
2023-02-26T02:40:44.247Z,-0.96
2023-02-26T02:41:44.232Z,-0.96
2023-02-26T02:42:44.223Z,-0.93
2023-02-26T02:43:44.220Z,-0.93
2023-02-26T02:44:44.248Z,-1.09
2023-02-26T02:45:44.277Z,-1.07
2023-02-26T02:46:44.227Z,-1.07
2023-02-26T02:47:44.195Z,-1.04
2023-02-26T02:48:44.204Z,-1.15
2023-02-26T02:49:44.170Z,-1.14
2023-02-26T02:50:44.171Z,-1.05
2023-02-26T02:51:44.155Z,-1.01
2023-02-26T02:52:44.166Z,-0.96
2023-02-26T02:53:44.157Z,-1.05
2023-02-26T02:54:44.145Z,-1.09
2023-02-26T02:55:44.121Z,-1.12
2023-02-26T02:56:44.123Z,-1.15
2023-02-26T02:57:44.120Z,-1.07
2023-02-26T02:58:44.108Z,-1.12
2023-02-26T02:59:44.098Z,-1.04
2023-02-26T03:00:44.105Z,-1.09
2023-02-26T03:01:44.081Z,-1.14
2023-02-26T03:02:44.165Z,-1.07
2023-02-26T03:03:44.081Z,-1.02
2023-02-26T03:04:44.063Z,-1.01
2023-02-26T03:05:44.064Z,-1.04
2023-02-26T03:06:44.043Z,-1.07
2023-02-26T03:07:44.037Z,-1.15
2023-02-26T03:08:44.050Z,-1.05
2023-02-26T03:09:44.027Z,-1.08
2023-02-26T03:10:44.041Z,-1.02
2023-02-26T03:11:44.010Z,-1.05
2023-02-26T03:12:43.997Z,-1.02
2023-02-26T03:13:43.994Z,-1.04
2023-02-26T03:14:44.027Z,-1.09
2023-02-26T03:15:43.985Z,-1.08
2023-02-26T03:16:44.028Z,-1.08
2023-02-26T03:17:43.964Z,-1.02
2023-02-26T03:18:43.957Z,-1.05
2023-02-26T03:19:43.955Z,-1.01
2023-02-26T03:20:43.961Z,-1.08
2023-02-26T03:21:43.938Z,-0.99
2023-02-26T03:22:43.959Z,-1.15
2023-02-26T03:23:43.926Z,-1.14
2023-02-26T03:24:43.911Z,-1.12
2023-02-26T03:25:43.913Z,-1.09
2023-02-26T03:26:43.896Z,-1.15
2023-02-26T03:27:43.891Z,-1.04
2023-02-26T03:28:43.894Z,-1.15
2023-02-26T03:29:43.883Z,-1.14
2023-02-26T03:30:44.886Z,-1.07
2023-02-26T03:31:43.949Z,-1.07
2023-02-26T03:32:43.872Z,-1.11
2023-02-26T03:33:43.846Z,-1.15
2023-02-26T03:34:43.843Z,-1.17
2023-02-26T03:35:43.842Z,-1.14
2023-02-26T03:36:43.832Z,-1.19
2023-02-26T03:37:43.812Z,-1.15
2023-02-26T03:38:43.819Z,-1.14
2023-02-26T03:39:43.797Z,-1.12
2023-02-26T03:40:43.799Z,-1.09
2023-02-26T03:41:43.785Z,-1.11
2023-02-26T03:42:43.779Z,-1.15
2023-02-26T03:43:43.769Z,-1.12
2023-02-26T03:44:44.365Z,-1.01
2023-02-26T03:45:43.825Z,-1.11
2023-02-26T03:46:43.754Z,-1.02
2023-02-26T03:47:43.742Z,-1.09
2023-02-26T03:48:43.782Z,-1.02
2023-02-26T03:49:43.729Z,-1.11
2023-02-26T03:50:43.729Z,-1.11
2023-02-26T03:51:43.718Z,-1.07
2023-02-26T03:52:43.714Z,-1.05
2023-02-26T03:53:43.704Z,-0.99
2023-02-26T03:54:43.691Z,-1.01
2023-02-26T03:55:43.682Z,-1.07
2023-02-26T03:56:43.689Z,-1.11
2023-02-26T03:57:43.669Z,-1.05
2023-02-26T03:58:43.656Z,-1.07
2023-02-26T03:59:43.655Z,-1.12
2023-02-26T04:00:43.652Z,-1.08
2023-02-26T04:01:43.666Z,-1.12
2023-02-26T04:03:00.768Z,-1.26
2023-02-26T04:03:45.447Z,-1.19
2023-02-26T04:04:49.733Z,-1.15
2023-02-26T04:05:43.604Z,-1.12
2023-02-26T04:07:03.933Z,-1.19
2023-02-26T04:07:43.598Z,-1.07
2023-02-26T04:08:43.593Z,-1.14
2023-02-26T04:09:51.935Z,-1.09
2023-02-26T04:11:15.902Z,-1.29
2023-02-26T04:11:43.579Z,-1.23
2023-02-26T04:12:47.595Z,-1.20
2023-02-26T04:13:43.554Z,-1.26
2023-02-26T04:14:43.541Z,-1.19
2023-02-26T04:15:43.538Z,-1.26
2023-02-26T04:16:43.575Z,-1.20
2023-02-26T04:17:43.519Z,-1.17
2023-02-26T04:18:43.506Z,-1.17
2023-02-26T04:19:43.503Z,-1.15
2023-02-26T04:20:43.503Z,-1.14
2023-02-26T04:21:43.492Z,-1.15
2023-02-26T04:22:43.481Z,-1.25
2023-02-26T04:23:43.509Z,-1.15
2023-02-26T04:24:43.469Z,-1.09
2023-02-26T04:25:43.514Z,-1.09
2023-02-26T04:26:43.471Z,-1.08
2023-02-26T04:27:43.440Z,-1.12
2023-02-26T04:28:43.430Z,-1.14
2023-02-26T04:29:43.432Z,-1.19
2023-02-26T04:30:43.459Z,-1.22
2023-02-26T04:31:43.454Z,-1.22
2023-02-26T04:32:43.407Z,-1.32
2023-02-26T04:33:43.401Z,-1.25
2023-02-26T04:34:43.403Z,-1.26
2023-02-26T04:35:43.391Z,-1.23
2023-02-26T04:36:43.377Z,-1.17
2023-02-26T04:37:43.355Z,-1.19
2023-02-26T04:38:43.362Z,-1.27
2023-02-26T04:39:43.358Z,-1.22
2023-02-26T04:40:43.357Z,-1.22
2023-02-26T04:41:43.334Z,-1.26
2023-02-26T04:42:43.330Z,-1.17
2023-02-26T04:43:43.326Z,-1.26
2023-02-26T04:44:43.308Z,-1.26
2023-02-26T04:45:43.300Z,-1.20
2023-02-26T04:46:43.296Z,-1.17
2023-02-26T04:47:43.292Z,-1.23
2023-02-26T04:48:43.292Z,-1.25
2023-02-26T04:49:43.293Z,-1.23
2023-02-26T04:50:43.252Z,-1.15
2023-02-26T04:51:43.282Z,-1.20
2023-02-26T04:52:43.250Z,-1.14
2023-02-26T04:53:43.249Z,-1.12
2023-02-26T04:54:43.233Z,-1.17
2023-02-26T04:55:43.230Z,-1.20
2023-02-26T04:56:43.986Z,-1.19
2023-02-26T04:57:43.203Z,-1.15
2023-02-26T04:58:43.193Z,-1.19
2023-02-26T04:59:43.208Z,-1.23
2023-02-26T05:00:43.181Z,-1.30
2023-02-26T05:01:43.218Z,-1.23
2023-02-26T05:02:43.172Z,-1.19
2023-02-26T05:03:43.177Z,-1.25
2023-02-26T05:04:43.200Z,-1.25
2023-02-26T05:05:43.167Z,-1.22
2023-02-26T05:06:43.160Z,-1.32
2023-02-26T05:07:43.133Z,-1.17
2023-02-26T05:08:43.234Z,-1.25
2023-02-26T05:09:43.111Z,-1.29
2023-02-26T05:10:43.125Z,-1.26
2023-02-26T05:11:43.116Z,-1.29
2023-02-26T05:12:43.109Z,-1.26
2023-02-26T05:13:43.108Z,-1.22
2023-02-26T05:14:43.119Z,-1.23
2023-02-26T05:15:43.129Z,-1.23
2023-02-26T05:16:43.092Z,-1.17
2023-02-26T05:17:43.061Z,-1.23
2023-02-26T05:18:43.049Z,-1.22
2023-02-26T05:19:43.059Z,-1.14
2023-02-26T05:20:43.043Z,-1.15
2023-02-26T05:21:43.033Z,-1.05
2023-02-26T05:22:43.062Z,-1.17
2023-02-26T05:23:43.024Z,-1.14
2023-02-26T05:24:43.000Z,-1.14
2023-02-26T05:25:42.991Z,-1.08
2023-02-26T05:26:42.981Z,-1.12
2023-02-26T05:27:43.004Z,-1.15
2023-02-26T05:28:42.983Z,-1.14
2023-02-26T05:29:42.959Z,-1.09
2023-02-26T05:30:42.988Z,-1.08
2023-02-26T05:31:43.188Z,-1.15
2023-02-26T05:32:42.954Z,-1.09
2023-02-26T05:33:42.944Z,-1.22
2023-02-26T05:34:43.902Z,-1.09
2023-02-26T05:35:42.912Z,-1.14
2023-02-26T05:36:42.939Z,-1.11
2023-02-26T05:37:42.906Z,-1.19
2023-02-26T05:38:42.910Z,-1.22
2023-02-26T05:39:42.882Z,-1.26
2023-02-26T05:40:42.882Z,-1.20
2023-02-26T05:41:42.867Z,-1.25
2023-02-26T05:42:42.866Z,-1.33
2023-02-26T05:43:42.882Z,-1.29
2023-02-26T05:44:42.897Z,-1.27
2023-02-26T05:45:42.906Z,-1.25
2023-02-26T05:46:42.840Z,-1.25
2023-02-26T05:47:42.820Z,-1.22
2023-02-26T05:48:45.871Z,-1.17
2023-02-26T05:49:42.839Z,-1.14
2023-02-26T05:50:42.812Z,-1.25
2023-02-26T05:51:42.826Z,-1.17
2023-02-26T05:52:42.793Z,-1.08
2023-02-26T05:53:42.821Z,-1.11
2023-02-26T05:54:42.772Z,-1.08
2023-02-26T05:55:42.771Z,-0.96
2023-02-26T05:56:42.760Z,-1.01
2023-02-26T05:57:42.762Z,-1.01
2023-02-26T05:58:42.743Z,-0.96
2023-02-26T05:59:42.748Z,-0.93
2023-02-26T06:00:42.741Z,-1.04
2023-02-26T06:01:42.792Z,-0.91
2023-02-26T06:02:42.741Z,-0.93
2023-02-26T06:03:42.704Z,-1.01
2023-02-26T06:04:42.694Z,-0.91
2023-02-26T06:05:42.682Z,-0.93
2023-02-26T06:06:42.677Z,-0.90
2023-02-26T06:07:42.699Z,-0.78
2023-02-26T06:08:42.692Z,-0.82
2023-02-26T06:09:42.668Z,-0.85
2023-02-26T06:10:42.646Z,-0.75
2023-02-26T06:11:42.652Z,-0.77
2023-02-26T06:12:42.626Z,-0.74
2023-02-26T06:13:42.644Z,-0.71
2023-02-26T06:14:42.609Z,-0.77
2023-02-26T06:15:42.627Z,-0.74
2023-02-26T06:16:42.651Z,-0.71
2023-02-26T06:17:42.583Z,-0.68
2023-02-26T06:18:42.580Z,-0.71
2023-02-26T06:19:42.574Z,-0.64
2023-02-26T06:20:42.577Z,-0.67
2023-02-26T06:21:42.561Z,-0.67
2023-02-26T06:22:42.553Z,-0.59
2023-02-26T06:23:42.544Z,-0.65
2023-02-26T06:24:43.394Z,-0.59
2023-02-26T06:25:42.535Z,-0.67
2023-02-26T06:26:42.521Z,-0.67
2023-02-26T06:27:42.526Z,-0.74
2023-02-26T06:28:42.510Z,-0.75
2023-02-26T06:29:42.509Z,-0.65
2023-02-26T06:30:42.532Z,-0.62
2023-02-26T06:31:42.595Z,-0.65
2023-02-26T06:32:42.557Z,-0.67
2023-02-26T06:33:42.470Z,-0.59
2023-02-26T06:34:42.472Z,-0.70
2023-02-26T06:35:42.469Z,-0.65
2023-02-26T06:36:42.462Z,-0.67
2023-02-26T06:37:42.450Z,-0.68
2023-02-26T06:38:42.450Z,-0.62
2023-02-26T06:39:42.420Z,-0.65
2023-02-26T06:40:43.513Z,-0.62
2023-02-26T06:41:42.410Z,-0.67
2023-02-26T06:42:42.416Z,-0.59
2023-02-26T06:43:42.399Z,-0.50
2023-02-26T06:44:42.925Z,-0.52
2023-02-26T06:45:42.410Z,-0.54
2023-02-26T06:46:42.396Z,-0.59
2023-02-26T06:47:42.369Z,-0.62
2023-02-26T06:48:42.373Z,-0.57
2023-02-26T06:49:42.354Z,-0.59
2023-02-26T06:50:42.360Z,-0.59
2023-02-26T06:51:42.371Z,-0.57
2023-02-26T06:52:42.346Z,-0.64
2023-02-26T06:53:42.993Z,-0.53
2023-02-26T06:54:42.320Z,-0.53
2023-02-26T06:55:42.324Z,-0.53
2023-02-26T06:56:42.318Z,-0.62
2023-02-26T06:57:42.309Z,-0.50
2023-02-26T06:58:42.306Z,-0.57
2023-02-26T06:59:42.361Z,-0.67
2023-02-26T07:00:42.275Z,-0.50
2023-02-26T07:01:42.263Z,-0.52
2023-02-26T07:02:42.304Z,-0.47
2023-02-26T07:03:42.255Z,-0.56
2023-02-26T07:04:42.265Z,-0.59
2023-02-26T07:05:42.231Z,-0.50
2023-02-26T07:06:42.586Z,-0.54
2023-02-26T07:07:42.219Z,-0.54
2023-02-26T07:08:42.204Z,-0.56
2023-02-26T07:09:45.607Z,-0.49
2023-02-26T07:10:42.187Z,-0.36
2023-02-26T07:11:42.192Z,-0.44
2023-02-26T07:12:42.205Z,-0.43
2023-02-26T07:13:42.178Z,-0.44
2023-02-26T07:14:42.162Z,-0.39
2023-02-26T07:15:42.401Z,-0.41
2023-02-26T07:16:42.187Z,-0.28
2023-02-26T07:17:42.151Z,-0.23
2023-02-26T07:18:42.136Z,-0.28
2023-02-26T07:19:42.127Z,-0.18
2023-02-26T07:20:42.128Z,-0.26
2023-02-26T07:21:42.123Z,-0.21
2023-02-26T07:22:42.135Z,-0.31
2023-02-26T07:23:42.124Z,-0.26
2023-02-26T07:24:42.114Z,-0.29
2023-02-26T07:25:42.095Z,-0.29
2023-02-26T07:26:42.086Z,-0.36
2023-02-26T07:27:43.815Z,-0.29
2023-02-26T07:28:43.064Z,-0.35
2023-02-26T07:29:42.041Z,-0.26
2023-02-26T07:30:42.206Z,-0.35
2023-02-26T07:31:42.288Z,-0.34
2023-02-26T07:32:42.039Z,-0.36
2023-02-26T07:33:42.031Z,-0.35
2023-02-26T07:34:42.007Z,-0.28
2023-02-26T07:35:41.996Z,-0.23
2023-02-26T07:36:42.026Z,-0.15
2023-02-26T07:37:41.991Z,-0.25
2023-02-26T07:38:41.972Z,-0.32
2023-02-26T07:39:41.979Z,-0.25
2023-02-26T07:40:41.962Z,-0.21
2023-02-26T07:41:41.968Z,-0.26
2023-02-26T07:42:41.944Z,-0.25
2023-02-26T07:43:41.944Z,0.04
2023-02-26T07:44:41.929Z,0.12
2023-02-26T07:45:41.949Z,0.29
2023-02-26T07:46:41.909Z,0.26
2023-02-26T07:47:41.963Z,0.44
2023-02-26T07:48:41.887Z,0.52
2023-02-26T07:49:41.902Z,0.70
2023-02-26T07:50:41.877Z,0.78
2023-02-26T07:51:41.882Z,0.56
2023-02-26T07:52:41.937Z,0.56
2023-02-26T07:53:41.863Z,0.40
2023-02-26T07:54:41.845Z,0.41
2023-02-26T07:55:41.833Z,0.41
2023-02-26T07:56:41.833Z,0.44
2023-02-26T07:57:41.843Z,0.36
2023-02-26T07:58:41.818Z,0.49
2023-02-26T07:59:41.827Z,0.34
2023-02-26T08:00:41.811Z,0.40
2023-02-26T08:01:41.836Z,0.34
2023-02-26T08:02:41.780Z,0.31
2023-02-26T08:03:41.803Z,0.47
2023-02-26T08:04:41.761Z,0.52
2023-02-26T08:05:41.772Z,0.43
2023-02-26T08:06:41.751Z,0.58
2023-02-26T08:07:41.756Z,0.46
2023-02-26T08:08:41.768Z,0.46
2023-02-26T08:09:41.718Z,0.43
2023-02-26T08:10:42.221Z,0.58
2023-02-26T08:11:42.756Z,0.52
2023-02-26T08:12:42.405Z,0.47
2023-02-26T08:13:41.695Z,0.66
2023-02-26T08:14:41.733Z,0.56
2023-02-26T08:15:42.547Z,0.70
2023-02-26T08:16:41.675Z,0.77
2023-02-26T08:17:41.705Z,0.83
2023-02-26T08:18:41.652Z,0.76
2023-02-26T08:19:41.654Z,0.77
2023-02-26T08:20:41.640Z,0.73
2023-02-26T08:21:41.621Z,0.62
2023-02-26T08:22:41.615Z,0.86
2023-02-26T08:23:41.623Z,0.92
2023-02-26T08:24:41.593Z,0.74
2023-02-26T08:25:42.596Z,0.68
2023-02-26T08:26:41.594Z,0.70
2023-02-26T08:27:41.579Z,0.66
2023-02-26T08:28:41.590Z,0.70
2023-02-26T08:29:41.593Z,0.55
2023-02-26T08:30:41.604Z,0.52
2023-02-26T08:31:41.790Z,0.41
2023-02-26T08:32:41.590Z,0.44
2023-02-26T08:33:41.531Z,0.46
2023-02-26T08:34:41.537Z,0.56
2023-02-26T08:35:41.508Z,0.60
2023-02-26T08:36:41.507Z,0.65
2023-02-26T08:37:41.495Z,0.83
2023-02-26T08:38:41.506Z,0.81
2023-02-26T08:39:41.473Z,0.86
2023-02-26T08:40:41.498Z,0.78
2023-02-26T08:41:41.460Z,0.77
2023-02-26T08:42:41.464Z,0.70
2023-02-26T08:43:41.456Z,0.73
2023-02-26T08:44:41.443Z,0.86
2023-02-26T08:45:41.435Z,0.94
2023-02-26T08:46:41.506Z,1.04
2023-02-26T08:47:53.891Z,0.95
2023-02-26T08:48:43.415Z,1.04
2023-02-26T08:49:42.002Z,1.10
2023-02-26T08:50:41.394Z,1.37
2023-02-26T08:51:41.393Z,1.22
2023-02-26T08:52:41.399Z,1.05
2023-02-26T08:53:41.404Z,1.01
2023-02-26T08:54:41.400Z,1.02
2023-02-26T08:55:41.374Z,0.94
2023-02-26T08:56:41.349Z,0.94
2023-02-26T08:57:41.993Z,0.88
2023-02-26T08:58:41.350Z,0.98
2023-02-26T08:59:41.346Z,0.94
2023-02-26T09:00:41.331Z,0.86
2023-02-26T09:01:41.383Z,0.94
2023-02-26T09:02:41.394Z,1.02
2023-02-26T09:03:41.299Z,1.10
2023-02-26T09:04:42.005Z,1.16
2023-02-26T09:05:41.296Z,1.35
2023-02-26T09:06:41.277Z,1.63
2023-02-26T09:07:41.266Z,1.78
2023-02-26T09:08:41.264Z,1.88
2023-02-26T09:09:41.298Z,2.08
2023-02-26T09:10:41.331Z,1.99
2023-02-26T09:11:42.016Z,1.78
2023-02-26T09:12:41.238Z,1.59
2023-02-26T09:13:41.259Z,1.45
2023-02-26T09:14:41.246Z,1.45
2023-02-26T09:15:41.210Z,1.32
2023-02-26T09:16:42.010Z,1.40
2023-02-26T09:17:41.194Z,1.49
2023-02-26T09:18:41.203Z,1.50
2023-02-26T09:19:41.205Z,1.44
2023-02-26T09:20:41.181Z,1.49
2023-02-26T09:21:41.166Z,1.55
2023-02-26T09:22:41.169Z,1.62
2023-02-26T09:23:41.157Z,1.58
2023-02-26T09:24:41.542Z,1.67
2023-02-26T09:25:41.140Z,1.71
2023-02-26T09:26:41.130Z,1.67
2023-02-26T09:27:41.151Z,1.60
2023-02-26T09:28:41.154Z,1.49
2023-02-26T09:29:41.121Z,1.44
2023-02-26T09:30:41.101Z,1.49
2023-02-26T09:31:41.324Z,1.52
2023-02-26T09:32:41.138Z,1.50
2023-02-26T09:33:41.079Z,1.35
2023-02-26T09:34:41.078Z,1.37
2023-02-26T09:35:41.922Z,1.24
2023-02-26T09:36:41.049Z,1.13
2023-02-26T09:37:41.058Z,1.26
2023-02-26T09:38:42.037Z,1.28
2023-02-26T09:39:41.046Z,1.32
2023-02-26T09:40:41.021Z,1.45
2023-02-26T09:41:41.090Z,1.50
2023-02-26T09:42:41.009Z,1.58
2023-02-26T09:43:40.992Z,1.53
2023-02-26T09:44:40.996Z,1.56
2023-02-26T09:45:43.553Z,1.52
2023-02-26T09:46:40.992Z,1.49
2023-02-26T09:47:41.551Z,1.42
2023-02-26T09:48:40.971Z,1.38
2023-02-26T09:49:41.011Z,1.34
2023-02-26T09:50:40.947Z,1.38
2023-02-26T09:51:40.945Z,1.35
2023-02-26T09:52:40.944Z,1.49
2023-02-26T09:53:40.944Z,1.38
2023-02-26T09:54:41.507Z,1.49
2023-02-26T09:55:40.973Z,1.38
2023-02-26T09:56:40.924Z,1.63
2023-02-26T09:57:41.433Z,1.50
2023-02-26T09:58:40.887Z,1.55
2023-02-26T09:59:40.886Z,1.68
2023-02-26T10:00:40.875Z,1.84
2023-02-26T10:01:40.930Z,1.81
2023-02-26T10:02:40.916Z,2.07
2023-02-26T10:03:40.890Z,2.10
2023-02-26T10:04:40.843Z,2.06
2023-02-26T10:05:40.844Z,2.17
2023-02-26T10:06:40.832Z,2.04
2023-02-26T10:07:40.815Z,1.97
2023-02-26T10:08:41.261Z,2.10
2023-02-26T10:09:40.847Z,2.14
2023-02-26T10:10:41.515Z,2.08
2023-02-26T10:11:40.811Z,2.08
2023-02-26T10:12:40.774Z,2.06
2023-02-26T10:13:56.199Z,2.10
2023-02-26T10:14:42.850Z,2.08
2023-02-26T10:15:40.782Z,2.04
2023-02-26T10:16:40.869Z,2.02
2023-02-26T10:17:40.773Z,1.95
2023-02-26T10:18:40.768Z,2.02
2023-02-26T10:19:40.734Z,2.00
2023-02-26T10:20:40.859Z,1.91
2023-02-26T10:21:40.735Z,1.85
2023-02-26T10:22:40.730Z,2.02
2023-02-26T10:23:43.340Z,1.80
2023-02-26T10:24:40.685Z,1.73
2023-02-26T10:25:40.686Z,1.73
2023-02-26T10:26:40.704Z,1.70
2023-02-26T10:27:40.667Z,1.73
2023-02-26T10:28:40.665Z,1.78
2023-02-26T10:29:40.685Z,1.87
2023-02-26T10:30:40.689Z,2.07
2023-02-26T10:31:40.759Z,2.25
2023-02-26T10:32:40.869Z,2.07
2023-02-26T10:33:40.655Z,2.15
2023-02-26T10:34:41.569Z,2.17
2023-02-26T10:35:40.594Z,2.26
2023-02-26T10:36:41.420Z,2.35
2023-02-26T10:37:40.603Z,2.32
2023-02-26T10:38:40.613Z,2.28
2023-02-26T10:39:40.573Z,2.15
2023-02-26T10:40:40.624Z,2.29
2023-02-26T10:41:41.514Z,2.25
2023-02-26T10:42:40.545Z,2.22
2023-02-26T10:43:40.540Z,2.31
2023-02-26T10:44:40.536Z,2.17
2023-02-26T10:45:40.554Z,2.24
2023-02-26T10:46:40.543Z,2.35
2023-02-26T10:47:44.171Z,2.33
2023-02-26T10:48:41.020Z,2.39
2023-02-26T10:49:40.478Z,2.35
2023-02-26T10:50:40.488Z,2.33
2023-02-26T10:51:40.589Z,2.28
2023-02-26T10:52:40.466Z,2.22
2023-02-26T10:53:40.845Z,2.20
2023-02-26T10:54:41.438Z,2.17
2023-02-26T10:55:40.433Z,2.31
2023-02-26T10:56:40.681Z,2.22
2023-02-26T10:57:40.417Z,2.17
2023-02-26T10:58:41.051Z,2.10
2023-02-26T10:59:40.410Z,2.13
2023-02-26T11:00:41.404Z,2.06
2023-02-26T11:01:40.444Z,2.13
2023-02-26T11:02:41.494Z,1.97
2023-02-26T11:03:41.052Z,1.99
2023-02-26T11:04:40.391Z,1.91
2023-02-26T11:05:41.097Z,2.04
2023-02-26T11:06:41.151Z,2.20
2023-02-26T11:07:40.937Z,2.15
2023-02-26T11:08:40.353Z,2.15
2023-02-26T11:09:40.359Z,2.24
2023-02-26T11:10:40.619Z,2.20
2023-02-26T11:11:40.955Z,2.17
2023-02-26T11:12:40.315Z,2.11
2023-02-26T11:13:40.940Z,2.31
2023-02-26T11:14:40.296Z,2.20
2023-02-26T11:15:40.326Z,2.20
2023-02-26T11:16:41.038Z,2.26
2023-02-26T11:17:40.294Z,2.15
2023-02-26T11:18:40.287Z,2.13
2023-02-26T11:19:40.279Z,2.14
2023-02-26T11:20:40.259Z,2.10
2023-02-26T11:21:40.250Z,2.22
2023-02-26T11:22:40.237Z,2.17
2023-02-26T11:23:40.254Z,2.17
2023-02-26T11:24:40.929Z,2.14
2023-02-26T11:25:40.215Z,2.20
2023-02-26T11:26:40.177Z,2.14
2023-02-26T11:27:41.250Z,2.15
2023-02-26T11:28:40.216Z,2.25
2023-02-26T11:29:40.186Z,2.25
2023-02-26T11:30:40.230Z,2.35
2023-02-26T11:31:42.028Z,2.24
2023-02-26T11:32:41.600Z,2.33
2023-02-26T11:33:40.144Z,2.36
2023-02-26T11:34:40.137Z,2.33
2023-02-26T11:35:40.160Z,2.49
2023-02-26T11:36:40.173Z,2.29
2023-02-26T11:37:40.127Z,2.31
2023-02-26T11:38:40.107Z,2.36
2023-02-26T11:39:40.112Z,2.26
2023-02-26T11:40:40.156Z,2.15
2023-02-26T11:41:40.110Z,2.17
2023-02-26T11:42:40.069Z,2.13
2023-02-26T11:43:40.106Z,2.02
2023-02-26T11:44:40.065Z,2.14
2023-02-26T11:45:40.074Z,2.13
2023-02-26T11:46:40.047Z,2.10
2023-02-26T11:47:40.033Z,2.17
2023-02-26T11:48:40.032Z,2.14
2023-02-26T11:49:40.030Z,2.14
2023-02-26T11:50:42.183Z,2.10
2023-02-26T11:51:40.027Z,2.20
2023-02-26T11:52:40.009Z,2.11
2023-02-26T11:53:40.909Z,2.17
2023-02-26T11:54:39.977Z,2.10
2023-02-26T11:55:40.027Z,2.17
2023-02-26T11:56:39.968Z,2.13
2023-02-26T11:57:39.964Z,2.04
2023-02-26T11:58:39.955Z,1.99
2023-02-26T11:59:39.948Z,2.00
2023-02-26T12:00:39.928Z,1.97
2023-02-26T12:01:39.944Z,1.85
2023-02-26T12:02:39.928Z,1.87
2023-02-26T12:03:40.059Z,1.74
2023-02-26T12:04:39.932Z,1.76
2023-02-26T12:05:39.888Z,1.81
2023-02-26T12:06:39.895Z,1.77
2023-02-26T12:07:39.883Z,1.74
2023-02-26T12:08:39.856Z,1.87
2023-02-26T12:09:40.853Z,1.94
2023-02-26T12:10:39.850Z,1.94
2023-02-26T12:11:39.846Z,2.15
2023-02-26T12:12:39.844Z,2.17
2023-02-26T12:13:39.856Z,2.22
2023-02-26T12:14:39.826Z,2.28
2023-02-26T12:15:39.811Z,2.24
2023-02-26T12:16:40.836Z,2.33
2023-02-26T12:17:39.787Z,2.38
2023-02-26T12:18:39.820Z,2.38
2023-02-26T12:19:39.786Z,2.43
2023-02-26T12:20:39.786Z,2.57
2023-02-26T12:21:39.775Z,2.61
2023-02-26T12:22:39.782Z,2.57
2023-02-26T12:23:39.753Z,2.42
2023-02-26T12:24:39.814Z,2.47
2023-02-26T12:25:39.731Z,2.47
2023-02-26T12:26:39.741Z,2.42
2023-02-26T12:27:39.714Z,2.39
2023-02-26T12:28:39.702Z,2.42
2023-02-26T12:29:39.709Z,2.25
2023-02-26T12:30:39.721Z,2.26
2023-02-26T12:31:39.767Z,2.29
2023-02-26T12:32:39.749Z,2.42
2023-02-26T12:33:39.696Z,2.42
2023-02-26T12:34:39.668Z,2.35
2023-02-26T12:35:39.680Z,2.33
2023-02-26T12:36:48.437Z,2.28
2023-02-26T12:37:42.455Z,2.33
2023-02-26T12:38:39.667Z,2.36
2023-02-26T12:39:39.639Z,2.39
2023-02-26T12:40:39.641Z,2.53
2023-02-26T12:41:39.616Z,2.54
2023-02-26T12:42:39.649Z,2.71
2023-02-26T12:43:39.607Z,2.75
2023-02-26T12:44:39.595Z,2.71
2023-02-26T12:45:39.584Z,2.64
2023-02-26T12:46:39.657Z,2.77
2023-02-26T12:47:39.570Z,2.87
2023-02-26T12:48:39.582Z,2.87
2023-02-26T12:49:39.556Z,2.98
2023-02-26T12:50:39.541Z,2.87
2023-02-26T12:51:40.464Z,2.97
2023-02-26T12:52:39.544Z,3.03
2023-02-26T12:53:39.526Z,3.13
2023-02-26T12:54:39.520Z,3.13
2023-02-26T12:55:39.501Z,3.14
2023-02-26T12:56:39.495Z,3.18
2023-02-26T12:57:39.528Z,3.25
2023-02-26T12:58:39.563Z,3.40
2023-02-26T12:59:40.467Z,3.42
2023-02-26T13:00:39.572Z,3.50
2023-02-26T13:01:41.795Z,3.51
2023-02-26T13:02:39.450Z,3.37
2023-02-26T13:03:39.480Z,3.22
2023-02-26T13:04:39.516Z,3.31
2023-02-26T13:05:39.439Z,3.29